createdAt,value
2018-10-07T00:00:11.344Z,6.33
2018-10-07T00:02:39.523Z,5.37
2018-10-07T00:05:07.698Z,4.90
2018-10-07T00:07:35.871Z,5.50
2018-10-07T00:10:04.058Z,4.67
2018-10-07T00:12:32.229Z,5.83
2018-10-07T00:15:00.416Z,6.77
2018-10-07T00:17:28.630Z,7.30
2018-10-07T00:19:56.809Z,5.97
2018-10-07T00:22:24.980Z,6.50
2018-10-07T00:24:53.134Z,6.27
2018-10-07T00:27:21.317Z,6.00
2018-10-07T00:29:49.483Z,6.67
2018-10-07T00:32:17.643Z,5.50
2018-10-07T00:34:46.984Z,5.30
2018-10-07T00:37:15.186Z,5.23
2018-10-07T00:39:43.789Z,6.20
2018-10-07T00:42:12.085Z,5.93
2018-10-07T00:44:40.263Z,5.70
2018-10-07T00:47:08.454Z,5.20
2018-10-07T00:49:36.699Z,4.67
2018-10-07T00:52:04.950Z,4.83
2018-10-07T00:54:33.150Z,5.80
2018-10-07T00:57:01.350Z,5.23
2018-10-07T00:59:29.565Z,5.13
2018-10-07T01:01:57.749Z,4.90
2018-10-07T01:04:25.935Z,4.47
2018-10-07T01:06:54.147Z,5.37
2018-10-07T01:09:22.330Z,5.00
2018-10-07T01:11:50.530Z,5.70
2018-10-07T01:14:18.706Z,4.80
2018-10-07T01:16:46.897Z,5.60
2018-10-07T01:19:15.094Z,4.33
2018-10-07T01:21:43.282Z,4.63
2018-10-07T01:24:11.458Z,5.13
2018-10-07T01:26:39.635Z,4.77
2018-10-07T01:29:07.831Z,5.67
2018-10-07T01:31:36.061Z,5.00
2018-10-07T01:34:04.246Z,6.20
2018-10-07T01:36:32.458Z,5.90
2018-10-07T01:39:00.613Z,5.20
2018-10-07T01:41:28.801Z,5.13
2018-10-07T01:43:56.991Z,5.27
2018-10-07T01:46:25.161Z,4.80
2018-10-07T01:48:53.321Z,5.17
2018-10-07T01:51:21.485Z,5.47
2018-10-07T01:53:49.661Z,4.73
2018-10-07T01:56:17.834Z,4.63
2018-10-07T01:58:46.009Z,5.33
2018-10-07T02:01:14.187Z,4.90
2018-10-07T02:03:42.354Z,5.30
2018-10-07T02:06:10.526Z,4.83
2018-10-07T02:08:38.736Z,5.00
2018-10-07T02:11:07.020Z,4.60
2018-10-07T02:13:35.190Z,6.30
2018-10-07T02:16:03.353Z,4.40
2018-10-07T02:18:31.518Z,4.93
2018-10-07T02:20:59.679Z,4.60
2018-10-07T02:23:27.883Z,4.73
2018-10-07T02:25:56.044Z,4.37
2018-10-07T02:28:24.223Z,4.47
2018-10-07T02:30:52.428Z,4.83
2018-10-07T02:33:20.597Z,4.87
2018-10-07T02:35:48.763Z,4.50
2018-10-07T02:38:16.967Z,4.70
2018-10-07T02:40:45.141Z,4.83
2018-10-07T02:43:13.326Z,4.80
2018-10-07T02:45:41.488Z,4.83
2018-10-07T02:48:09.663Z,5.00
2018-10-07T02:50:37.939Z,5.40
2018-10-07T02:53:06.136Z,4.67
2018-10-07T02:55:34.322Z,4.90
2018-10-07T02:58:04.963Z,4.50
2018-10-07T03:00:33.130Z,4.80
2018-10-07T03:03:01.307Z,4.60
2018-10-07T03:05:29.473Z,5.07
2018-10-07T03:07:57.685Z,4.93
2018-10-07T03:10:25.876Z,4.37
2018-10-07T03:12:54.129Z,4.73
2018-10-07T03:15:22.294Z,5.07
2018-10-07T03:17:50.469Z,4.70
2018-10-07T03:20:18.645Z,4.27
2018-10-07T03:22:46.814Z,4.07
2018-10-07T03:25:14.987Z,4.47
2018-10-07T03:27:43.153Z,4.17
2018-10-07T03:30:11.335Z,4.17
2018-10-07T03:32:39.552Z,4.60
2018-10-07T03:35:07.739Z,3.43
2018-10-07T03:37:35.951Z,4.10
2018-10-07T03:40:04.119Z,3.77
2018-10-07T03:42:32.294Z,4.50
2018-10-07T03:45:00.511Z,4.60
2018-10-07T03:47:28.744Z,4.80
2018-10-07T03:50:02.683Z,5.03
2018-10-07T03:52:30.851Z,4.20
2018-10-07T03:54:59.115Z,5.07
2018-10-07T03:57:27.276Z,4.20
2018-10-07T03:59:55.462Z,3.87
2018-10-07T04:02:23.622Z,4.20
2018-10-07T04:04:51.790Z,4.43
2018-10-07T04:07:19.958Z,4.27
2018-10-07T04:09:48.158Z,4.70
2018-10-07T04:12:16.321Z,4.70
2018-10-07T04:14:44.490Z,4.60
2018-10-07T04:17:12.649Z,4.47
2018-10-07T04:19:41.056Z,4.43
2018-10-07T04:22:09.251Z,5.17
2018-10-07T04:24:37.426Z,4.70
2018-10-07T04:27:05.587Z,4.93
2018-10-07T04:29:33.799Z,5.10
2018-10-07T04:32:01.953Z,4.50
2018-10-07T04:34:30.136Z,4.80
2018-10-07T04:36:58.301Z,4.63
2018-10-07T04:39:26.511Z,5.00
2018-10-07T04:41:54.670Z,4.53
2018-10-07T04:44:22.842Z,5.00
2018-10-07T04:46:51.010Z,4.30
2018-10-07T04:49:19.190Z,5.07
2018-10-07T04:51:47.355Z,5.50
2018-10-07T04:54:15.518Z,5.37
2018-10-07T04:56:43.689Z,4.70
2018-10-07T04:59:11.871Z,5.47
2018-10-07T05:01:40.053Z,4.73
2018-10-07T05:04:08.209Z,5.67
2018-10-07T05:06:36.724Z,5.40
2018-10-07T05:09:08.526Z,5.57
2018-10-07T05:11:36.775Z,5.30
2018-10-07T05:14:05.401Z,5.20
2018-10-07T05:16:35.185Z,4.50
2018-10-07T05:19:03.377Z,5.17
2018-10-07T05:21:31.575Z,4.93
2018-10-07T05:23:59.753Z,5.70
2018-10-07T05:26:28.601Z,5.57
2018-10-07T05:28:56.807Z,5.03
2018-10-07T05:31:25.045Z,4.80
2018-10-07T05:33:53.779Z,4.93
2018-10-07T05:36:22.013Z,4.77
2018-10-07T05:38:50.354Z,5.27
2018-10-07T05:41:18.542Z,5.23
2018-10-07T05:43:46.734Z,5.13
2018-10-07T05:46:14.914Z,4.93
2018-10-07T05:48:43.111Z,5.37
2018-10-07T05:51:11.294Z,5.47
2018-10-07T05:53:39.474Z,4.80
2018-10-07T05:56:07.662Z,5.60
2018-10-07T05:58:36.460Z,5.80
2018-10-07T06:01:06.677Z,6.00
2018-10-07T06:03:42.689Z,5.70
2018-10-07T06:06:10.885Z,5.90
2018-10-07T06:08:40.587Z,6.37
2018-10-07T06:11:08.802Z,5.83
2018-10-07T06:13:36.986Z,5.70
2018-10-07T06:16:05.236Z,4.93
2018-10-07T06:18:33.417Z,5.03
2018-10-07T06:21:01.590Z,4.93
2018-10-07T06:23:29.986Z,5.10
2018-10-07T06:25:58.171Z,6.17
2018-10-07T06:28:26.372Z,5.00
2018-10-07T06:30:54.537Z,6.13
2018-10-07T06:33:23.564Z,5.70
2018-10-07T06:35:51.731Z,5.90
2018-10-07T06:38:19.913Z,5.50
2018-10-07T06:40:48.127Z,5.23
2018-10-07T06:43:16.291Z,5.80
2018-10-07T06:45:44.500Z,5.43
2018-10-07T06:48:12.642Z,5.63
2018-10-07T06:50:50.371Z,5.00
2018-10-07T06:53:18.546Z,5.33
2018-10-07T06:55:46.731Z,5.50
2018-10-07T06:58:14.914Z,5.20
2018-10-07T07:00:43.098Z,5.00
2018-10-07T07:03:11.277Z,5.27
2018-10-07T07:05:39.488Z,5.10
2018-10-07T07:08:07.714Z,4.43
2018-10-07T07:10:35.898Z,4.90
2018-10-07T07:13:04.153Z,5.10
2018-10-07T07:15:32.299Z,4.20
2018-10-07T07:18:00.525Z,4.60
2018-10-07T07:20:28.691Z,4.77
2018-10-07T07:22:56.878Z,4.20
2018-10-07T07:25:25.103Z,5.60
2018-10-07T07:27:53.307Z,4.97
2018-10-07T07:30:21.499Z,4.57
2018-10-07T07:32:49.744Z,4.70
2018-10-07T07:35:17.944Z,4.70
2018-10-07T07:37:46.150Z,4.40
2018-10-07T07:40:14.348Z,4.53
2018-10-07T07:42:42.531Z,4.70
2018-10-07T07:45:10.714Z,4.60
2018-10-07T07:47:38.905Z,4.77
2018-10-07T07:50:07.086Z,4.90
2018-10-07T07:52:35.303Z,4.60
2018-10-07T07:55:03.482Z,4.57
2018-10-07T07:57:31.671Z,4.97
2018-10-07T07:59:59.843Z,4.63
2018-10-07T08:02:28.035Z,4.73
2018-10-07T08:04:56.211Z,5.37
2018-10-07T08:07:24.394Z,4.60
2018-10-07T08:09:52.586Z,4.83
2018-10-07T08:12:20.801Z,4.60
2018-10-07T08:14:48.972Z,4.90
2018-10-07T08:17:17.190Z,4.73
2018-10-07T08:19:45.369Z,5.00
2018-10-07T08:22:13.775Z,5.07
2018-10-07T08:24:41.956Z,4.67
2018-10-07T08:27:10.127Z,4.90
2018-10-07T08:29:38.408Z,4.80
2018-10-07T08:32:06.501Z,5.07
2018-10-07T08:34:34.685Z,5.10
2018-10-07T08:37:02.863Z,4.97
2018-10-07T08:39:31.079Z,5.07
2018-10-07T08:41:59.339Z,5.13
2018-10-07T08:44:27.513Z,5.10
2018-10-07T08:46:55.677Z,4.43
2018-10-07T08:49:23.881Z,4.60
2018-10-07T08:51:52.072Z,4.73
2018-10-07T08:54:20.253Z,5.20
2018-10-07T08:56:48.434Z,4.47
2018-10-07T08:59:16.618Z,4.80
2018-10-07T09:01:44.769Z,4.83
2018-10-07T09:04:12.964Z,4.93
2018-10-07T09:06:41.155Z,5.10
2018-10-07T09:09:10.543Z,4.90
2018-10-07T09:11:38.729Z,3.97
2018-10-07T09:14:06.898Z,4.03
2018-10-07T09:16:35.119Z,4.43
2018-10-07T09:19:03.406Z,5.00
2018-10-07T09:21:31.577Z,4.17
2018-10-07T09:23:59.763Z,4.37
2018-10-07T09:26:27.950Z,4.50
2018-10-07T09:28:56.180Z,4.50
2018-10-07T09:31:24.391Z,4.40
2018-10-07T09:33:52.604Z,4.23
2018-10-07T09:36:20.803Z,4.50
2018-10-07T09:38:48.975Z,4.00
2018-10-07T09:41:17.145Z,4.67
2018-10-07T09:43:45.386Z,4.00
2018-10-07T09:46:13.548Z,4.33
2018-10-07T09:48:41.722Z,3.53
2018-10-07T09:51:09.901Z,3.47
2018-10-07T09:53:38.114Z,4.30
2018-10-07T09:56:06.278Z,4.60
2018-10-07T09:58:34.482Z,4.93
2018-10-07T10:01:02.651Z,4.60
2018-10-07T10:03:30.847Z,4.10
2018-10-07T10:05:59.009Z,5.43
2018-10-07T10:08:27.203Z,4.33
2018-10-07T10:10:55.419Z,3.80
2018-10-07T10:13:23.551Z,4.17
2018-10-07T10:15:51.763Z,4.40
2018-10-07T10:18:52.826Z,4.17
2018-10-07T10:21:29.458Z,4.33
2018-10-07T10:24:07.105Z,5.27
2018-10-07T10:26:40.217Z,4.90
2018-10-07T10:29:15.977Z,4.53
2018-10-07T10:31:56.230Z,5.17
2018-10-07T10:36:35.222Z,4.93
2018-10-07T10:39:08.431Z,5.57
2018-10-07T10:41:50.100Z,5.07
2018-10-07T10:44:28.946Z,5.03
2018-10-07T10:47:05.913Z,6.00
2018-10-07T10:49:43.750Z,5.50
2018-10-07T10:52:25.176Z,6.23
2018-10-07T10:54:58.191Z,5.80
2018-10-07T10:57:35.069Z,5.93
2018-10-07T11:00:08.404Z,5.83
2018-10-07T11:03:21.787Z,6.10
2018-10-07T11:05:59.319Z,5.90
2018-10-07T11:08:37.487Z,5.43
2018-10-07T11:11:12.180Z,5.47
2018-10-07T11:13:47.952Z,6.57
2018-10-07T11:17:32.380Z,5.67
2018-10-07T11:20:11.944Z,5.70
2018-10-07T11:22:51.553Z,6.20
2018-10-07T11:25:31.248Z,6.40
2018-10-07T11:28:07.818Z,6.70
2018-10-07T11:31:14.978Z,7.07
2018-10-07T11:33:49.231Z,6.33
2018-10-07T11:36:25.881Z,6.93
2018-10-07T11:39:02.902Z,6.67
2018-10-07T11:41:40.717Z,6.03
2018-10-07T11:44:16.082Z,6.53
2018-10-07T11:46:51.945Z,6.93
2018-10-07T11:49:25.683Z,6.40
2018-10-07T11:51:57.570Z,5.67
2018-10-07T11:55:08.953Z,6.30
2018-10-07T11:57:37.131Z,6.63
2018-10-07T12:00:05.326Z,7.63
2018-10-07T12:02:33.492Z,7.30
2018-10-07T12:05:01.684Z,7.20
2018-10-07T12:07:31.241Z,6.47
2018-10-07T12:09:59.437Z,6.40
2018-10-07T12:12:27.578Z,6.23
2018-10-07T12:14:55.775Z,6.57
2018-10-07T12:17:23.925Z,6.10
2018-10-07T12:19:52.090Z,7.50
2018-10-07T12:22:20.261Z,5.83
2018-10-07T12:24:48.427Z,5.97
2018-10-07T12:27:16.587Z,7.57
2018-10-07T12:29:44.753Z,6.27
2018-10-07T12:32:12.943Z,6.20
2018-10-07T12:34:41.111Z,7.23
2018-10-07T12:37:09.270Z,6.97
2018-10-07T12:39:37.439Z,7.80
2018-10-07T12:42:05.717Z,8.30
2018-10-07T12:44:33.891Z,9.00
2018-10-07T12:47:02.065Z,9.17
2018-10-07T12:49:30.242Z,8.30
2018-10-07T12:51:58.418Z,8.87
2018-10-07T12:54:27.018Z,7.17
2018-10-07T12:56:55.118Z,8.20
2018-10-07T12:59:23.279Z,9.40
2018-10-07T13:01:51.446Z,8.60
2018-10-07T13:04:19.620Z,8.23
2018-10-07T13:06:47.782Z,7.60
2018-10-07T13:09:16.190Z,8.57
2018-10-07T13:11:44.349Z,8.67
2018-10-07T13:14:12.520Z,8.10
2018-10-07T13:16:41.032Z,11.53
2018-10-07T13:19:09.383Z,9.17
2018-10-07T13:21:37.506Z,9.00
2018-10-07T13:24:05.686Z,10.20
2018-10-07T13:46:14.507Z,8.48
2018-10-07T13:48:42.673Z,9.30
2018-10-07T13:51:10.854Z,9.13
2018-10-07T13:53:39.139Z,8.53
2018-10-07T13:56:07.561Z,8.90
2018-10-07T13:58:35.797Z,7.50
2018-10-07T14:01:03.966Z,7.22
2018-10-07T14:03:32.215Z,7.27
2018-10-07T14:06:00.318Z,6.67
2018-10-07T14:08:28.486Z,7.40
2018-10-07T14:10:56.669Z,6.50
2018-10-07T14:13:24.872Z,6.28
2018-10-07T14:15:53.245Z,6.97
2018-10-07T14:18:21.431Z,6.33
2018-10-07T14:20:49.593Z,6.30
2018-10-07T14:23:17.769Z,7.30
2018-10-07T14:25:45.963Z,7.20
2018-10-07T14:28:14.187Z,7.60
2018-10-07T14:30:42.403Z,7.17
2018-10-07T14:33:10.574Z,8.60
2018-10-07T14:35:38.764Z,8.40
2018-10-07T14:38:06.954Z,7.40
2018-10-07T14:40:35.166Z,6.30
2018-10-07T14:43:03.366Z,6.37
2018-10-07T14:45:31.609Z,6.85
2018-10-07T14:47:59.778Z,7.30
2018-10-07T14:50:28.078Z,7.35
2018-10-07T14:52:56.244Z,6.60
2018-10-07T14:55:24.495Z,7.33
2018-10-07T14:57:52.665Z,6.62
2018-10-07T15:00:20.826Z,5.80
2018-10-07T15:02:49.010Z,6.67
2018-10-07T15:05:17.178Z,7.05
2018-10-07T15:07:45.374Z,6.62
2018-10-07T15:10:13.571Z,9.63
2018-10-07T15:12:41.791Z,10.27
2018-10-07T15:15:09.942Z,9.70
2018-10-07T15:17:38.138Z,8.85
2018-10-07T15:20:06.631Z,8.90
2018-10-07T15:22:34.809Z,9.80
2018-10-07T15:25:02.998Z,8.40
2018-10-07T15:27:31.179Z,9.70
2018-10-07T15:29:59.458Z,9.27
2018-10-07T15:32:27.533Z,9.30
2018-10-07T15:34:55.714Z,8.60
2018-10-07T15:37:23.948Z,8.73
2018-10-07T15:39:52.227Z,8.90
2018-10-07T15:42:20.446Z,8.65
2018-10-07T15:44:48.677Z,9.28
2018-10-07T15:47:16.841Z,9.80
2018-10-07T15:49:45.011Z,8.95
2018-10-07T15:52:13.213Z,7.70
2018-10-07T15:54:41.399Z,7.78
2018-10-07T15:57:09.607Z,7.90
2018-10-07T15:59:37.811Z,8.07
2018-10-07T16:02:05.990Z,8.10
2018-10-07T16:04:34.161Z,8.73
2018-10-07T16:07:02.360Z,8.20
2018-10-07T16:09:30.585Z,7.80
2018-10-07T16:11:58.800Z,7.80
2018-10-07T16:14:27.008Z,7.58
2018-10-07T16:16:55.198Z,8.80
2018-10-07T16:19:23.373Z,8.93
2018-10-07T16:21:51.577Z,9.05
2018-10-07T16:24:19.826Z,7.80
2018-10-07T16:26:48.120Z,6.62
2018-10-07T16:29:16.330Z,6.37
2018-10-07T16:31:44.514Z,6.50
2018-10-07T16:34:12.740Z,6.10
2018-10-07T16:36:40.935Z,6.70
2018-10-07T16:39:09.148Z,6.30
2018-10-07T16:41:37.302Z,6.50
2018-10-07T16:44:05.500Z,6.83
2018-10-07T16:46:33.665Z,6.75
2018-10-07T16:49:01.842Z,6.77
2018-10-07T16:51:30.036Z,6.53
2018-10-07T16:53:58.248Z,7.35
2018-10-07T16:56:26.430Z,7.90
2018-10-07T16:58:54.644Z,7.20
2018-10-07T17:01:22.839Z,7.05
2018-10-07T17:03:51.080Z,7.25
2018-10-07T17:06:19.252Z,7.00
2018-10-07T17:08:47.415Z,6.62
2018-10-07T17:11:15.579Z,5.80
2018-10-07T17:13:43.763Z,6.17
2018-10-07T17:16:11.968Z,6.57
2018-10-07T17:18:40.142Z,6.83
2018-10-07T17:21:08.397Z,6.23
2018-10-07T17:23:36.563Z,6.30
2018-10-07T17:26:04.730Z,5.60
2018-10-07T17:28:32.907Z,6.20
2018-10-07T17:31:01.083Z,6.20
2018-10-07T17:33:29.265Z,5.90
2018-10-07T17:35:57.492Z,6.17
2018-10-07T17:38:25.655Z,5.53
2018-10-07T17:40:53.823Z,6.40
2018-10-07T17:43:22.002Z,5.90
2018-10-07T17:45:50.177Z,5.77
2018-10-07T17:48:18.381Z,6.03
2018-10-07T17:50:46.514Z,5.63
2018-10-07T17:53:14.694Z,5.77
2018-10-07T17:55:42.868Z,6.50
2018-10-07T17:58:11.038Z,7.40
2018-10-07T18:00:39.226Z,6.90
2018-10-07T18:03:07.524Z,7.25
2018-10-07T18:05:35.651Z,8.33
2018-10-07T18:08:03.847Z,7.05
2018-10-07T18:10:32.022Z,6.00
2018-10-07T18:13:00.214Z,6.50
2018-10-07T18:15:28.396Z,5.70
2018-10-07T18:17:56.611Z,5.40
2018-10-07T18:20:24.818Z,6.83
2018-10-07T18:22:53.095Z,6.20
2018-10-07T18:25:21.332Z,6.83
2018-10-07T18:27:49.509Z,7.05
2018-10-07T18:30:17.699Z,6.60
2018-10-07T18:32:45.903Z,6.05
2018-10-07T18:35:14.099Z,7.05
2018-10-07T18:37:42.286Z,6.90
2018-10-07T18:40:10.525Z,5.93
2018-10-07T18:42:38.676Z,7.03
2018-10-07T18:45:06.906Z,6.40
2018-10-07T18:47:35.107Z,6.15
2018-10-07T18:50:03.305Z,5.40
2018-10-07T18:52:31.491Z,4.97
2018-10-07T18:54:59.679Z,3.90
2018-10-07T18:57:28.931Z,4.65
2018-10-07T18:59:57.148Z,4.93
2018-10-07T19:02:25.371Z,6.77
2018-10-07T19:04:53.542Z,8.13
2018-10-07T19:07:21.795Z,6.67
2018-10-07T19:09:50.012Z,4.00
2018-10-07T19:12:18.200Z,4.20
2018-10-07T19:14:46.479Z,4.22
2018-10-07T19:17:14.622Z,4.20
2018-10-07T19:19:42.797Z,4.83
2018-10-07T19:22:10.966Z,5.40
2018-10-07T19:24:39.154Z,7.20
2018-10-07T19:27:07.511Z,4.90
2018-10-07T19:29:35.777Z,4.93
2018-10-07T19:32:03.949Z,4.63
2018-10-07T19:34:32.133Z,4.80
2018-10-07T19:37:00.390Z,5.78
2018-10-07T19:39:28.600Z,6.30
2018-10-07T19:41:56.787Z,7.00
2018-10-07T19:44:24.999Z,6.00
2018-10-07T19:46:53.229Z,6.53
2018-10-07T19:49:21.461Z,6.40
2018-10-07T19:51:49.646Z,6.42
2018-10-07T19:54:17.825Z,5.58
2018-10-07T19:56:46.018Z,4.40
2018-10-07T19:59:14.203Z,4.10
2018-10-07T20:01:42.427Z,3.30
2018-10-07T20:04:10.615Z,3.90
2018-10-07T20:06:38.818Z,3.90
2018-10-07T20:09:08.318Z,3.80
2018-10-07T20:11:36.518Z,4.40
2018-10-07T20:14:04.711Z,4.23
2018-10-07T20:16:32.936Z,3.80
2018-10-07T20:19:01.126Z,3.90
2018-10-07T20:21:29.852Z,4.03
2018-10-07T20:23:58.056Z,2.77
2018-10-07T20:28:53.730Z,3.07
2018-10-07T20:36:16.968Z,4.50
2018-10-07T20:38:45.187Z,5.67
2018-10-07T20:41:13.400Z,4.70
2018-10-07T20:43:41.588Z,4.60
2018-10-07T20:46:09.896Z,4.60
2018-10-07T20:48:38.114Z,5.17
2018-10-07T20:51:06.379Z,5.60
2018-10-07T20:53:34.656Z,4.97
2018-10-07T20:56:02.882Z,4.50
2018-10-07T20:58:31.059Z,4.17
2018-10-07T21:00:59.299Z,5.20
2018-10-07T21:03:27.503Z,4.80
2018-10-07T21:05:55.710Z,4.80
2018-10-07T21:08:23.907Z,5.20
2018-10-07T21:10:52.136Z,5.00
2018-10-07T21:13:20.327Z,4.40
2018-10-07T21:15:48.560Z,4.30
2018-10-07T21:18:16.752Z,3.90
2018-10-07T21:20:44.932Z,4.10
2018-10-07T21:23:13.180Z,4.30
2018-10-07T21:25:41.357Z,4.70
2018-10-07T21:28:09.571Z,4.80
2018-10-07T21:30:37.763Z,5.30
2018-10-07T21:33:06.070Z,4.87
2018-10-07T21:35:34.320Z,4.70
2018-10-07T21:38:02.537Z,5.30
2018-10-07T21:40:30.751Z,5.70
2018-10-07T21:42:58.946Z,4.90
2018-10-07T21:45:27.142Z,5.50
2018-10-07T21:47:55.334Z,5.95
2018-10-07T21:50:23.540Z,5.97
2018-10-07T21:52:51.971Z,5.72
2018-10-07T21:55:20.157Z,5.67
2018-10-07T21:57:48.356Z,5.80
2018-10-07T22:00:16.567Z,5.80
2018-10-07T22:02:44.804Z,5.30
2018-10-07T22:05:13.015Z,5.50
2018-10-07T22:07:41.223Z,5.70
2018-10-07T22:10:09.469Z,4.40
2018-10-07T22:12:37.682Z,4.40
2018-10-07T22:15:05.890Z,5.50
2018-10-07T22:17:34.097Z,5.22
2018-10-07T22:20:02.325Z,5.30
2018-10-07T22:22:30.474Z,4.50
2018-10-07T22:24:58.656Z,5.40
2018-10-07T22:27:26.839Z,4.53
2018-10-07T22:29:55.019Z,5.90
2018-10-07T22:32:23.206Z,5.40
2018-10-07T22:34:51.420Z,5.67
2018-10-07T22:37:19.626Z,7.23
2018-10-07T22:39:47.810Z,6.20
2018-10-07T22:42:16.002Z,6.60
2018-10-07T22:44:44.185Z,7.00
2018-10-07T22:47:12.372Z,6.30
2018-10-07T22:49:40.546Z,7.97
2018-10-07T22:52:08.722Z,7.33
2018-10-07T22:54:36.941Z,7.33
2018-10-07T22:57:05.170Z,7.33
2018-10-07T22:59:33.483Z,7.17
2018-10-07T23:02:01.691Z,7.60
2018-10-07T23:04:29.890Z,7.37
2018-10-07T23:06:58.069Z,7.27
2018-10-07T23:09:26.256Z,6.40
2018-10-07T23:11:54.442Z,5.90
2018-10-07T23:14:22.642Z,5.70
2018-10-07T23:16:50.844Z,5.63
2018-10-07T23:19:19.059Z,5.90
2018-10-07T23:21:47.269Z,5.50
2018-10-07T23:24:15.451Z,5.90
2018-10-07T23:26:43.636Z,5.57
2018-10-07T23:29:11.817Z,5.40
2018-10-07T23:31:40.169Z,6.17
2018-10-07T23:34:08.582Z,6.47
2018-10-07T23:36:36.794Z,5.40
2018-10-07T23:39:07.606Z,5.67
2018-10-07T23:41:35.802Z,5.73
2018-10-07T23:44:04.002Z,5.07
2018-10-07T23:46:32.190Z,6.10
2018-10-07T23:49:00.378Z,5.47
2018-10-07T23:51:28.647Z,5.40
2018-10-07T23:53:56.762Z,5.97
2018-10-07T23:56:24.985Z,4.97
2018-10-07T23:58:53.162Z,5.80
